createdAt,value
2018-12-21T00:00:19.835Z,96.10
2018-12-21T00:02:48.264Z,96.20
2018-12-21T00:05:16.684Z,96.20
2018-12-21T00:07:45.072Z,96.30
2018-12-21T00:10:13.687Z,96.50
2018-12-21T00:12:42.101Z,96.50
2018-12-21T00:15:10.514Z,96.40
2018-12-21T00:17:39.040Z,96.40
2018-12-21T00:20:09.571Z,96.70
2018-12-21T00:22:38.227Z,96.90
2018-12-21T00:25:06.885Z,96.90
2018-12-21T00:27:35.292Z,96.90
2018-12-21T00:30:04.011Z,97.10
2018-12-21T00:32:37.702Z,97.10
2018-12-21T00:35:11.570Z,97.20
2018-12-21T00:37:45.354Z,97.30
2018-12-21T00:40:19.146Z,97.50
2018-12-21T00:42:52.853Z,97.60
2018-12-21T00:45:26.503Z,97.70
2018-12-21T00:47:55.012Z,97.90
2018-12-21T00:50:23.450Z,98.00
2018-12-21T00:52:51.994Z,98.10
2018-12-21T00:55:20.382Z,98.30
2018-12-21T00:57:48.774Z,98.50
2018-12-21T01:00:20.763Z,98.70
2018-12-21T01:02:49.281Z,98.80
2018-12-21T01:05:17.696Z,98.90
2018-12-21T01:07:46.231Z,99.00
2018-12-21T01:10:14.982Z,99.00
2018-12-21T01:12:43.603Z,99.20
2018-12-21T01:15:12.127Z,99.40
2018-12-21T01:17:40.561Z,99.40
2018-12-21T01:20:09.453Z,99.50
2018-12-21T01:22:37.987Z,99.70
2018-12-21T01:25:06.508Z,99.80
2018-12-21T01:27:34.936Z,99.90
2018-12-21T01:30:04.035Z,99.80
2018-12-21T01:32:32.419Z,99.80
2018-12-21T01:35:00.882Z,99.90
2018-12-21T01:37:29.316Z,99.90
2018-12-21T01:39:57.802Z,99.80
2018-12-21T01:42:26.204Z,99.80
2018-12-21T01:44:54.699Z,99.70
2018-12-21T01:47:23.079Z,99.60
2018-12-21T01:49:51.495Z,99.70
2018-12-21T01:52:19.888Z,99.70
2018-12-21T01:54:48.295Z,99.80
2018-12-21T01:57:16.701Z,99.90
2018-12-21T01:59:45.085Z,99.90
2018-12-21T02:02:13.568Z,99.90
2018-12-21T02:04:41.982Z,99.90
2018-12-21T02:07:10.381Z,99.90
2018-12-21T02:09:38.789Z,99.90
2018-12-21T02:12:07.180Z,99.90
2018-12-21T02:14:35.565Z,99.90
2018-12-21T02:17:04.139Z,99.90
2018-12-21T02:19:32.531Z,99.90
2018-12-21T02:22:00.937Z,99.90
2018-12-21T02:24:29.364Z,99.90
2018-12-21T02:26:57.781Z,99.90
2018-12-21T02:29:26.209Z,99.90
2018-12-21T02:32:01.028Z,99.90
2018-12-21T02:34:29.439Z,99.90
2018-12-21T02:36:57.852Z,99.90
2018-12-21T02:39:26.257Z,99.90
2018-12-21T02:41:54.679Z,99.90
2018-12-21T02:44:23.091Z,99.90
2018-12-21T02:46:51.526Z,99.90
2018-12-21T02:49:19.907Z,99.90
2018-12-21T02:51:48.317Z,99.90
2018-12-21T02:54:16.749Z,99.90
2018-12-21T02:56:45.152Z,99.90
2018-12-21T02:59:13.622Z,99.90
2018-12-21T03:01:42.115Z,99.90
2018-12-21T03:04:10.639Z,99.90
2018-12-21T03:06:39.179Z,99.90
2018-12-21T03:09:10.119Z,99.90
2018-12-21T03:11:38.635Z,99.90
2018-12-21T03:14:07.041Z,99.90
2018-12-21T03:16:35.431Z,99.90
2018-12-21T03:19:04.009Z,99.90
2018-12-21T03:21:32.419Z,99.90
2018-12-21T03:24:00.812Z,99.90
2018-12-21T03:26:29.376Z,99.90
2018-12-21T03:28:57.860Z,99.90
2018-12-21T03:31:26.389Z,99.90
2018-12-21T03:33:54.803Z,99.90
2018-12-21T03:36:23.300Z,99.90
2018-12-21T03:38:51.706Z,99.90
2018-12-21T03:41:20.167Z,99.90
2018-12-21T03:43:48.637Z,99.90
2018-12-21T03:46:17.138Z,99.90
2018-12-21T03:48:45.641Z,99.90
2018-12-21T03:51:14.020Z,99.90
2018-12-21T03:53:42.418Z,99.90
2018-12-21T03:56:10.807Z,99.90
2018-12-21T03:58:39.383Z,99.90
2018-12-21T04:01:07.967Z,99.90
2018-12-21T04:03:36.653Z,99.90
2018-12-21T04:06:05.200Z,99.90
2018-12-21T04:08:33.648Z,99.90
2018-12-21T04:11:02.442Z,99.90
2018-12-21T04:13:31.080Z,99.90
2018-12-21T04:15:59.737Z,99.90
2018-12-21T04:18:28.402Z,99.90
2018-12-21T04:20:57.077Z,99.90
2018-12-21T04:23:25.531Z,99.90
2018-12-21T04:25:53.974Z,99.90
2018-12-21T04:28:22.619Z,99.90
2018-12-21T04:30:51.135Z,99.90
2018-12-21T04:33:19.707Z,99.90
2018-12-21T04:35:48.218Z,99.90
2018-12-21T04:38:17.159Z,99.90
2018-12-21T04:40:45.997Z,99.90
2018-12-21T04:43:14.412Z,99.90
2018-12-21T04:45:42.951Z,99.90
2018-12-21T04:48:11.438Z,99.90
2018-12-21T04:50:40.003Z,99.90
2018-12-21T04:53:08.544Z,99.90
2018-12-21T04:55:36.973Z,99.90
2018-12-21T04:58:05.485Z,99.90
2018-12-21T05:00:33.907Z,99.90
2018-12-21T05:03:02.308Z,99.90
2018-12-21T05:05:30.684Z,99.90
2018-12-21T05:07:59.085Z,99.90
2018-12-21T05:10:27.542Z,99.90
2018-12-21T05:12:55.936Z,99.90
2018-12-21T05:15:24.355Z,99.90
2018-12-21T05:17:52.785Z,99.90
2018-12-21T05:20:21.198Z,99.90
2018-12-21T05:22:52.374Z,99.90
2018-12-21T05:25:20.044Z,99.90
2018-12-21T05:27:48.446Z,99.90
2018-12-21T05:30:16.865Z,99.90
2018-12-21T05:32:45.376Z,99.90
2018-12-21T05:35:13.772Z,99.90
2018-12-21T05:37:42.301Z,99.90
2018-12-21T05:40:10.922Z,99.90
2018-12-21T05:42:39.316Z,99.90
2018-12-21T05:45:07.891Z,99.90
2018-12-21T05:47:36.271Z,99.90
2018-12-21T05:50:04.931Z,99.90
2018-12-21T05:52:33.361Z,99.90
2018-12-21T05:55:01.736Z,99.90
2018-12-21T05:57:30.120Z,99.90
2018-12-21T05:59:58.494Z,99.90
2018-12-21T06:02:27.024Z,99.90
2018-12-21T06:04:55.435Z,99.90
2018-12-21T06:07:23.855Z,99.90
2018-12-21T06:09:52.246Z,99.90
2018-12-21T06:12:20.621Z,99.90
2018-12-21T06:14:49.032Z,99.90
2018-12-21T06:17:17.444Z,99.90
2018-12-21T06:19:45.829Z,99.90
2018-12-21T06:22:14.236Z,99.90
2018-12-21T06:24:42.643Z,99.90
2018-12-21T06:27:11.263Z,99.90
2018-12-21T06:29:39.730Z,99.90
2018-12-21T06:32:08.134Z,99.90
2018-12-21T06:34:36.579Z,99.90
2018-12-21T06:37:04.978Z,99.90
2018-12-21T06:39:33.404Z,99.90
2018-12-21T06:42:01.848Z,99.90
2018-12-21T06:44:30.232Z,99.90
2018-12-21T06:46:58.639Z,99.90
2018-12-21T06:49:27.067Z,99.90
2018-12-21T06:51:55.585Z,99.90
2018-12-21T06:54:24.120Z,99.90
2018-12-21T06:56:52.571Z,99.90
2018-12-21T06:59:20.955Z,99.90
2018-12-21T07:01:49.381Z,99.90
2018-12-21T07:04:17.783Z,99.90
2018-12-21T07:06:46.295Z,99.90
2018-12-21T07:09:14.771Z,99.90
2018-12-21T07:11:43.181Z,99.90
2018-12-21T07:14:11.577Z,99.90
2018-12-21T07:16:40.012Z,99.90
2018-12-21T07:19:08.423Z,99.90
2018-12-21T07:21:36.817Z,99.90
2018-12-21T07:24:05.247Z,99.90
2018-12-21T07:26:33.663Z,99.90
2018-12-21T07:29:02.103Z,99.90
2018-12-21T07:31:30.583Z,99.90
2018-12-21T07:33:59.110Z,99.90
2018-12-21T07:36:27.532Z,99.90
2018-12-21T07:38:55.974Z,99.90
2018-12-21T07:41:24.431Z,99.90
2018-12-21T07:43:52.845Z,99.90
2018-12-21T07:46:21.298Z,99.90
2018-12-21T07:48:49.736Z,99.90
2018-12-21T07:51:18.247Z,99.90
2018-12-21T07:53:46.732Z,99.90
2018-12-21T07:56:15.131Z,99.90
2018-12-21T07:58:43.545Z,99.90
2018-12-21T08:01:12.011Z,99.90
2018-12-21T08:03:40.438Z,99.90
2018-12-21T08:06:08.839Z,99.90
2018-12-21T08:08:37.291Z,99.90
2018-12-21T08:11:05.773Z,99.90
2018-12-21T08:13:34.279Z,99.90
2018-12-21T08:16:02.726Z,99.90
2018-12-21T08:18:31.210Z,99.90
2018-12-21T08:20:59.719Z,99.90
2018-12-21T08:23:28.118Z,99.90
2018-12-21T08:25:56.555Z,99.90
2018-12-21T08:28:24.989Z,99.90
2018-12-21T08:30:53.431Z,99.90
2018-12-21T08:33:21.969Z,99.90
2018-12-21T08:35:50.393Z,99.90
2018-12-21T08:38:18.823Z,99.90
2018-12-21T08:40:47.295Z,99.90
2018-12-21T08:43:15.726Z,99.90
2018-12-21T08:45:44.184Z,99.90
2018-12-21T08:48:12.621Z,99.90
2018-12-21T08:50:41.057Z,99.90
2018-12-21T08:53:09.489Z,99.90
2018-12-21T08:55:37.912Z,99.90
2018-12-21T08:58:06.359Z,99.90
2018-12-21T09:00:34.831Z,99.90
2018-12-21T09:03:03.275Z,99.90
2018-12-21T09:05:31.711Z,99.90
2018-12-21T09:08:00.213Z,99.90
2018-12-21T09:10:28.854Z,99.90
2018-12-21T09:12:57.279Z,99.90
2018-12-21T09:15:25.728Z,99.90
2018-12-21T09:17:54.184Z,99.90
2018-12-21T09:20:22.625Z,99.90
2018-12-21T09:22:51.031Z,99.90
2018-12-21T09:25:19.444Z,99.90
2018-12-21T09:27:47.915Z,99.90
2018-12-21T09:30:16.330Z,99.90
2018-12-21T09:32:44.895Z,99.90
2018-12-21T09:35:13.498Z,99.90
2018-12-21T09:37:41.918Z,99.90
2018-12-21T09:40:11.872Z,99.90
2018-12-21T09:42:40.305Z,99.90
2018-12-21T09:45:08.866Z,99.90
2018-12-21T09:47:37.335Z,99.90
2018-12-21T09:50:08.990Z,99.90
2018-12-21T09:52:37.631Z,99.90
2018-12-21T09:55:07.372Z,99.90
2018-12-21T09:57:35.785Z,99.90
2018-12-21T10:00:05.753Z,99.90
2018-12-21T10:02:35.887Z,99.90
2018-12-21T10:05:05.105Z,99.90
2018-12-21T10:07:33.525Z,99.90
2018-12-21T10:10:01.963Z,99.90
2018-12-21T10:12:30.386Z,99.90
2018-12-21T10:14:58.824Z,99.90
2018-12-21T10:17:27.273Z,99.90
2018-12-21T10:19:55.728Z,99.90
2018-12-21T10:22:24.190Z,99.90
2018-12-21T10:24:54.174Z,99.90
2018-12-21T10:27:22.815Z,99.90
2018-12-21T10:29:51.267Z,99.90
2018-12-21T10:32:19.709Z,99.90
2018-12-21T10:34:48.198Z,99.90
2018-12-21T10:37:16.844Z,99.90
2018-12-21T10:39:45.369Z,99.90
2018-12-21T10:42:13.875Z,99.90
2018-12-21T10:44:42.598Z,99.90
2018-12-21T10:47:11.100Z,99.90
2018-12-21T10:49:39.838Z,99.90
2018-12-21T10:52:08.286Z,99.90
2018-12-21T10:54:36.761Z,99.90
2018-12-21T10:57:05.198Z,99.90
2018-12-21T10:59:33.579Z,99.80
2018-12-21T11:02:02.215Z,98.70
2018-12-21T11:04:30.769Z,97.90
2018-12-21T11:06:59.243Z,98.20
2018-12-21T11:09:28.216Z,97.70
2018-12-21T11:11:56.662Z,97.60
2018-12-21T11:14:25.471Z,97.60
2018-12-21T11:16:54.012Z,97.50
2018-12-21T11:19:22.443Z,97.80
2018-12-21T11:21:50.933Z,98.20
2018-12-21T11:24:19.419Z,97.20
2018-12-21T11:26:47.840Z,96.50
2018-12-21T11:29:16.536Z,95.60
2018-12-21T11:31:45.574Z,94.90
2018-12-21T11:34:14.023Z,95.00
2018-12-21T11:36:42.466Z,94.60
2018-12-21T11:39:10.915Z,94.20
2018-12-21T11:41:39.364Z,94.70
2018-12-21T11:44:07.802Z,94.20
2018-12-21T11:46:36.218Z,94.20
2018-12-21T11:49:04.636Z,94.70
2018-12-21T11:51:33.087Z,94.70
2018-12-21T11:54:01.489Z,94.50
2018-12-21T11:56:30.016Z,94.50
2018-12-21T11:58:58.469Z,94.50
2018-12-21T12:01:27.028Z,94.60
2018-12-21T12:03:55.492Z,94.90
2018-12-21T12:06:23.960Z,94.30
2018-12-21T12:08:52.424Z,94.10
2018-12-21T12:11:20.880Z,94.20
2018-12-21T12:13:49.305Z,94.60
2018-12-21T12:16:17.764Z,93.80
2018-12-21T12:18:46.224Z,94.00
2018-12-21T12:21:14.724Z,94.10
2018-12-21T12:23:43.191Z,94.10
2018-12-21T12:26:11.708Z,93.40
2018-12-21T12:28:40.184Z,93.10
2018-12-21T12:31:08.591Z,92.60
2018-12-21T12:33:37.424Z,92.40
2018-12-21T12:36:05.961Z,92.90
2018-12-21T12:38:34.461Z,92.80
2018-12-21T12:41:06.793Z,93.10
2018-12-21T12:43:33.658Z,92.60
2018-12-21T12:46:02.199Z,93.00
2018-12-21T12:48:30.882Z,92.80
2018-12-21T12:50:59.310Z,92.90
2018-12-21T12:53:27.868Z,92.80
2018-12-21T12:55:56.384Z,92.50
2018-12-21T12:58:24.807Z,92.40
2018-12-21T13:15:24.593Z,92.40
2018-12-21T13:17:53.070Z,92.20
2018-12-21T13:20:21.668Z,92.30
2018-12-21T13:22:50.129Z,92.20
2018-12-21T13:25:18.575Z,92.40
2018-12-21T13:27:47.155Z,92.20
2018-12-21T13:30:15.784Z,92.20
2018-12-21T13:32:44.213Z,92.00
2018-12-21T13:35:12.671Z,92.00
2018-12-21T13:37:41.196Z,92.30
2018-12-21T13:40:11.907Z,92.50
2018-12-21T13:42:43.351Z,92.50
2018-12-21T13:45:11.832Z,92.40
2018-12-21T13:47:40.369Z,92.00
2018-12-21T13:50:12.370Z,91.30
2018-12-21T13:52:40.848Z,91.80
2018-12-21T13:55:09.566Z,90.90
2018-12-21T13:57:38.031Z,90.70
2018-12-21T14:00:08.862Z,90.30
2018-12-21T14:02:37.362Z,90.80
2018-12-21T14:05:07.233Z,91.00
2018-12-21T14:07:35.720Z,91.40
2018-12-21T14:10:07.081Z,91.50
2018-12-21T14:12:35.551Z,91.50
2018-12-21T14:15:04.262Z,91.80
2018-12-21T14:17:32.809Z,91.50
2018-12-21T14:20:01.232Z,91.50
2018-12-21T14:22:29.655Z,91.50
2018-12-21T14:24:58.099Z,91.70
2018-12-21T14:27:26.557Z,91.90
2018-12-21T14:29:55.000Z,91.40
2018-12-21T14:32:23.483Z,91.40
2018-12-21T14:34:51.904Z,91.80
2018-12-21T14:37:20.361Z,91.50
2018-12-21T14:39:48.793Z,91.80
2018-12-21T14:42:17.302Z,92.00
2018-12-21T14:44:45.777Z,92.00
2018-12-21T14:47:14.192Z,92.50
2018-12-21T14:49:42.648Z,92.50
2018-12-21T14:52:11.103Z,92.50
2018-12-21T14:54:39.537Z,92.50
2018-12-21T14:57:07.952Z,92.70
2018-12-21T14:59:36.388Z,92.60
2018-12-21T15:02:05.045Z,92.90
2018-12-21T15:04:33.483Z,92.30
2018-12-21T15:07:01.907Z,92.50
2018-12-21T15:09:30.385Z,92.40
2018-12-21T15:11:58.797Z,92.50
2018-12-21T15:14:27.261Z,92.50
2018-12-21T15:16:55.696Z,92.40
2018-12-21T15:19:24.112Z,92.40
2018-12-21T15:21:52.610Z,92.60
2018-12-21T15:24:21.075Z,92.80
2018-12-21T15:26:49.482Z,92.80
2018-12-21T15:29:17.880Z,92.70
2018-12-21T15:34:27.161Z,92.60
2018-12-21T15:36:55.578Z,92.70
2018-12-21T15:39:24.046Z,92.80
2018-12-21T15:41:52.633Z,92.80
2018-12-21T15:44:21.049Z,93.00
2018-12-21T15:46:49.465Z,92.80
2018-12-21T15:49:17.907Z,92.80
2018-12-21T15:51:46.431Z,92.80
2018-12-21T15:54:14.850Z,92.70
2018-12-21T15:56:43.260Z,92.70
2018-12-21T15:59:12.960Z,92.80
2018-12-21T16:01:41.441Z,92.80
2018-12-21T16:04:10.011Z,93.00
2018-12-21T16:06:38.560Z,93.00
2018-12-21T16:09:08.001Z,93.10
2018-12-21T16:11:36.445Z,93.20
2018-12-21T16:14:05.181Z,93.30
2018-12-21T16:16:33.709Z,93.30
2018-12-21T16:19:02.165Z,93.30
2018-12-21T16:21:30.701Z,93.10
2018-12-21T16:24:06.681Z,93.10
2018-12-21T16:26:29.643Z,93.10
2018-12-21T16:28:58.099Z,93.20
2018-12-21T16:31:26.556Z,93.20
2018-12-21T16:33:54.989Z,93.30
2018-12-21T16:36:23.556Z,93.00
2018-12-21T16:38:52.123Z,93.20
2018-12-21T16:41:20.655Z,93.20
2018-12-21T16:43:49.157Z,93.20
2018-12-21T16:46:17.613Z,93.20
2018-12-21T16:48:47.262Z,93.30
2018-12-21T16:51:16.091Z,93.50
2018-12-21T16:53:44.748Z,93.30
2018-12-21T16:56:13.378Z,93.50
2018-12-21T16:58:41.851Z,93.50
2018-12-21T17:01:10.266Z,93.50
2018-12-21T17:03:38.792Z,93.30
2018-12-21T17:06:07.275Z,93.80
2018-12-21T17:08:35.743Z,93.60
2018-12-21T17:11:04.331Z,93.60
2018-12-21T17:13:32.921Z,93.70
2018-12-21T17:16:01.365Z,93.80
2018-12-21T17:18:29.995Z,93.80
2018-12-21T17:20:58.592Z,93.80
2018-12-21T17:23:27.131Z,94.00
2018-12-21T17:25:55.614Z,94.10
2018-12-21T17:28:24.076Z,94.00
2018-12-21T17:30:52.531Z,93.90
2018-12-21T17:33:20.962Z,93.90
2018-12-21T17:35:49.402Z,93.90
2018-12-21T17:38:17.834Z,94.00
2018-12-21T17:40:46.360Z,94.00
2018-12-21T17:43:14.778Z,93.90
2018-12-21T17:45:43.210Z,93.90
2018-12-21T17:48:11.649Z,93.90
2018-12-21T17:50:40.078Z,93.90
2018-12-21T17:53:08.517Z,94.00
2018-12-21T17:55:36.963Z,94.10
2018-12-21T17:58:08.466Z,94.10
2018-12-21T18:00:37.542Z,94.10
2018-12-21T18:03:07.081Z,94.20
2018-12-21T18:05:35.609Z,94.20
2018-12-21T18:08:10.918Z,94.30
2018-12-21T18:10:39.340Z,94.60
2018-12-21T18:13:07.767Z,94.20
2018-12-21T18:15:38.646Z,94.30
2018-12-21T18:18:07.084Z,94.20
2018-12-21T18:20:35.484Z,94.40
2018-12-21T18:23:05.874Z,94.30
2018-12-21T18:25:34.285Z,94.20
2018-12-21T18:28:10.725Z,94.40
2018-12-21T18:30:45.844Z,94.30
2018-12-21T18:33:15.854Z,94.50
2018-12-21T18:35:44.312Z,94.50
2018-12-21T18:38:16.092Z,94.60
2018-12-21T18:40:44.641Z,94.70
2018-12-21T18:43:13.058Z,94.70
2018-12-21T18:45:41.585Z,94.70
2018-12-21T18:48:10.080Z,94.70
2018-12-21T18:50:38.494Z,94.70
2018-12-21T18:53:07.073Z,94.80
2018-12-21T18:55:35.806Z,94.80
2018-12-21T18:58:04.412Z,95.00
2018-12-21T19:00:32.892Z,94.90
2018-12-21T19:03:01.342Z,94.70
2018-12-21T19:05:29.880Z,95.20
2018-12-21T19:07:58.291Z,95.10
2018-12-21T19:10:26.705Z,95.10
2018-12-21T19:12:55.117Z,95.20
2018-12-21T19:15:23.523Z,95.20
2018-12-21T19:17:51.972Z,95.30
2018-12-21T19:20:20.409Z,95.20
2018-12-21T19:22:48.887Z,95.30
2018-12-21T19:25:23.675Z,95.20
2018-12-21T19:27:54.809Z,95.30
2018-12-21T19:30:25.154Z,95.40
2018-12-21T19:32:53.704Z,95.30
2018-12-21T19:35:27.600Z,95.40
2018-12-21T19:37:52.649Z,95.50
2018-12-21T19:40:21.091Z,95.50
2018-12-21T19:42:49.517Z,95.50
2018-12-21T19:45:17.935Z,95.50
2018-12-21T19:47:46.383Z,95.50
2018-12-21T19:50:14.806Z,95.50
2018-12-21T19:52:43.246Z,95.50
2018-12-21T19:55:35.605Z,95.60
2018-12-21T19:58:04.028Z,95.80
2018-12-21T20:00:32.446Z,95.70
2018-12-21T20:03:00.896Z,95.80
2018-12-21T20:05:29.338Z,95.70
2018-12-21T20:07:57.817Z,95.80
2018-12-21T20:10:26.226Z,95.80
2018-12-21T20:12:54.701Z,95.80
2018-12-21T20:15:23.124Z,95.90
2018-12-21T20:17:51.536Z,95.90
2018-12-21T20:20:19.983Z,96.00
2018-12-21T20:22:48.388Z,96.00
2018-12-21T20:25:16.830Z,96.10
2018-12-21T20:27:45.243Z,96.10
2018-12-21T20:30:16.596Z,96.30
2018-12-21T20:32:45.568Z,96.10
2018-12-21T20:35:14.115Z,96.00
2018-12-21T20:37:42.601Z,95.90
2018-12-21T20:40:12.210Z,96.00
2018-12-21T20:42:40.754Z,96.00
2018-12-21T20:45:10.390Z,95.90
2018-12-21T20:47:38.844Z,95.80
2018-12-21T20:50:10.650Z,95.70
2018-12-21T20:52:39.068Z,95.60
2018-12-21T20:55:08.341Z,95.70
2018-12-21T20:57:37.371Z,95.60
2018-12-21T21:00:09.767Z,95.50
2018-12-21T21:02:38.219Z,95.50
2018-12-21T21:05:06.810Z,95.50
2018-12-21T21:07:35.243Z,95.60
2018-12-21T21:10:03.820Z,95.40
2018-12-21T21:12:32.322Z,95.50
2018-12-21T21:15:00.765Z,95.60
2018-12-21T21:17:29.184Z,95.50
2018-12-21T21:19:57.675Z,95.50
2018-12-21T21:22:26.093Z,95.70
2018-12-21T21:24:54.538Z,95.60
2018-12-21T21:27:30.168Z,95.60
2018-12-21T21:29:53.498Z,95.60
2018-12-21T21:32:21.898Z,95.70
2018-12-21T21:34:50.309Z,95.70
2018-12-21T21:37:18.746Z,95.80
2018-12-21T21:39:47.184Z,95.80
2018-12-21T21:42:15.676Z,95.90
2018-12-21T21:44:44.100Z,96.10
2018-12-21T21:47:12.540Z,96.30
2018-12-21T21:49:40.978Z,96.30
2018-12-21T21:52:09.398Z,96.20
2018-12-21T21:54:37.881Z,96.50
2018-12-21T21:57:06.290Z,96.30
2018-12-21T21:59:34.735Z,96.70
2018-12-21T22:02:03.272Z,96.70
2018-12-21T22:04:31.692Z,96.60
2018-12-21T22:07:00.202Z,96.60
2018-12-21T22:09:28.663Z,97.00
2018-12-21T22:11:57.116Z,96.60
2018-12-21T22:14:25.553Z,96.80
2018-12-21T22:16:53.961Z,96.70
2018-12-21T22:19:22.380Z,96.70
2018-12-21T22:21:50.787Z,96.70
2018-12-21T22:24:19.243Z,96.80
2018-12-21T22:26:47.656Z,96.80
2018-12-21T22:29:16.067Z,96.90
2018-12-21T22:31:44.471Z,97.00
2018-12-21T22:34:12.878Z,97.00
2018-12-21T22:36:41.304Z,97.10
2018-12-21T22:39:09.703Z,97.20
2018-12-21T22:41:38.122Z,97.30
2018-12-21T22:44:06.525Z,97.40
2018-12-21T22:46:34.946Z,97.40
2018-12-21T22:49:03.488Z,97.40
2018-12-21T22:51:31.941Z,97.50
2018-12-21T22:54:00.412Z,97.40
2018-12-21T22:56:28.841Z,97.40
2018-12-21T22:58:57.275Z,97.40
2018-12-21T23:01:25.705Z,97.40
2018-12-21T23:03:54.111Z,97.50
2018-12-21T23:06:22.519Z,97.60
2018-12-21T23:08:50.932Z,97.50
2018-12-21T23:11:19.367Z,97.60
2018-12-21T23:13:48.124Z,97.60
2018-12-21T23:16:16.550Z,97.60
2018-12-21T23:18:44.972Z,97.60
2018-12-21T23:21:13.383Z,97.70
2018-12-21T23:23:42.838Z,97.70
2018-12-21T23:26:11.250Z,97.70
2018-12-21T23:28:39.679Z,97.80
2018-12-21T23:31:08.085Z,97.80
2018-12-21T23:33:36.497Z,97.80
2018-12-21T23:36:04.932Z,97.80
2018-12-21T23:38:33.390Z,97.90
2018-12-21T23:41:01.826Z,98.10
2018-12-21T23:43:30.247Z,98.10
2018-12-21T23:45:58.685Z,98.30
2018-12-21T23:48:27.104Z,98.10
2018-12-21T23:50:55.513Z,98.10
2018-12-21T23:53:23.917Z,98.10
2018-12-21T23:55:52.349Z,98.20
2018-12-21T23:58:20.765Z,98.10
